Time;durP1;ratioP1;P1;durP2;ratioP2;P2;SDS_P1;SDS_P2;PMS_P1;PMS_P2;Temp;Humidity;BMP_temperature;BMP_pressure;BME280_temperature;BME280_humidity;BME280_pressure;Samples;Min_cycle;Max_cycle;Signal;HPM_P1;HPM_P2
2023/07/23 00:02:17;;;;;;;7.13;4.97;;;16.10;77.70;;;;;;5034042;28;20037;-65
2023/07/23 00:04:42;;;;;;;6.75;4.97;;;16.10;77.40;;;;;;5040895;28;20035;-64
2023/07/23 00:07:08;;;;;;;7.18;4.45;;;16.10;77.60;;;;;;5032834;28;20052;-64
2023/07/23 00:09:33;;;;;;;6.38;4.93;;;16.10;77.60;;;;;;5051109;28;20020;-64
2023/07/23 00:12:01;;;;;;;8.85;4.82;;;16.10;77.10;;;;;;5031538;28;20030;-64
2023/07/23 00:14:26;;;;;;;5.55;4.22;;;16.20;76.90;;;;;;5051048;28;20025;-64
2023/07/23 00:16:52;;;;;;;7.00;4.90;;;16.20;76.60;;;;;;5029516;28;20021;-64
2023/07/23 00:19:21;;;;;;;6.03;4.78;;;16.20;76.60;;;;;;5050888;28;20025;-60
2023/07/23 00:21:48;;;;;;;4.95;4.10;;;16.10;76.40;;;;;;5029399;28;20034;-65
2023/07/23 00:24:14;;;;;;;6.38;4.68;;;16.20;77.20;;;;;;5050711;28;20214;-64
2023/07/23 00:26:40;;;;;;;5.25;3.92;;;16.20;76.40;;;;;;5031159;28;20022;-64
2023/07/23 00:29:05;;;;;;;5.75;4.35;;;16.20;76.50;;;;;;5048496;28;20036;-65
2023/07/23 00:31:31;;;;;;;5.40;4.05;;;16.20;76.40;;;;;;5031092;28;20513;-64
2023/07/23 00:33:56;;;;;;;5.53;4.05;;;16.20;76.20;;;;;;5029773;28;20047;-64
2023/07/23 00:36:22;;;;;;;5.57;4.65;;;16.20;76.20;;;;;;5049857;28;20112;-64
2023/07/23 00:38:48;;;;;;;7.03;4.65;;;16.20;76.30;;;;;;5029309;28;20045;-65
2023/07/23 00:41:14;;;;;;;4.97;4.05;;;16.20;75.80;;;;;;5049741;28;20060;-64
2023/07/23 00:43:39;;;;;;;5.30;4.32;;;16.20;75.80;;;;;;5029212;28;20449;-64
2023/07/23 00:46:05;;;;;;;5.97;4.60;;;16.20;75.90;;;;;;5049292;28;20032;-65
2023/07/23 00:48:31;;;;;;;6.25;4.03;;;16.20;75.60;;;;;;5029243;28;20037;-64
2023/07/23 00:50:57;;;;;;;6.53;4.32;;;16.20;75.30;;;;;;5049516;28;20488;-66
2023/07/23 00:53:25;;;;;;;6.22;4.63;;;16.20;75.30;;;;;;5029187;28;20108;-63
2023/07/23 00:55:51;;;;;;;7.18;4.47;;;16.20;75.10;;;;;;5049896;28;20071;-64
2023/07/23 00:58:17;;;;;;;6.78;4.90;;;16.20;75.30;;;;;;5028741;28;20477;-64
2023/07/23 01:00:42;;;;;;;6.13;4.53;;;16.20;75.20;;;;;;5049539;28;20153;-64
2023/07/23 01:03:08;;;;;;;5.18;3.97;;;16.20;74.80;;;;;;5029023;28;20028;-64
2023/07/23 01:05:34;;;;;;;6.47;4.45;;;16.20;74.90;;;;;;5035591;28;20083;-64
2023/07/23 01:08:00;;;;;;;6.32;4.80;;;16.20;74.80;;;;;;5046156;28;20515;-65
2023/07/23 01:10:26;;;;;;;5.93;4.00;;;16.20;74.80;;;;;;5030416;28;20061;-64
2023/07/23 01:12:52;;;;;;;7.10;4.78;;;16.20;74.70;;;;;;5047443;28;20132;-65
2023/07/23 01:15:18;;;;;;;7.07;4.47;;;16.20;74.50;;;;;;5030500;28;20482;-64
2023/07/23 01:17:46;;;;;;;5.85;4.10;;;16.20;74.10;;;;;;5047290;28;20103;-64
2023/07/23 01:20:12;;;;;;;4.75;4.15;;;16.30;74.00;;;;;;5030077;28;20084;-64
2023/07/23 01:22:37;;;;;;;5.55;3.63;;;16.30;74.10;;;;;;5047054;28;20025;-64
2023/07/23 01:25:07;;;;;;;5.78;4.30;;;16.30;74.10;;;;;;5050186;28;20017;-64
2023/07/23 01:27:32;;;;;;;4.20;3.40;;;16.30;74.30;;;;;;5033070;28;20684;-64
2023/07/23 01:29:58;;;;;;;4.07;3.50;;;16.30;74.10;;;;;;5043891;28;20049;-63
2023/07/23 01:32:24;;;;;;;5.57;3.95;;;16.30;74.10;;;;;;5033070;28;20025;-64
2023/07/23 01:34:51;;;;;;;4.78;3.42;;;16.30;73.80;;;;;;5049395;28;20025;-65
2023/07/23 01:37:17;;;;;;;4.43;3.45;;;16.40;73.70;;;;;;5032085;28;20021;-64
2023/07/23 01:39:44;;;;;;;6.05;3.88;;;16.40;73.60;;;;;;5049524;28;20484;-64
2023/07/23 01:42:11;;;;;;;4.13;3.72;;;16.40;73.60;;;;;;5031197;28;20068;-63
2023/07/23 01:44:36;;;;;;;4.63;3.67;;;16.40;73.70;;;;;;5049186;28;20028;-65
2023/07/23 01:47:02;;;;;;;4.68;3.45;;;16.40;73.70;;;;;;5030295;28;20029;-64
2023/07/23 01:49:28;;;;;;;3.50;3.15;;;16.40;73.90;;;;;;5049267;28;20421;-64
2023/07/23 01:51:53;;;;;;;4.65;3.60;;;16.40;73.90;;;;;;5028961;28;20121;-64
2023/07/23 01:54:19;;;;;;;5.03;3.72;;;16.40;74.10;;;;;;5049248;28;20024;-62
2023/07/23 01:56:45;;;;;;;5.28;3.83;;;16.40;74.30;;;;;;5028165;28;20562;-64
2023/07/23 01:59:11;;;;;;;4.80;3.85;;;16.40;74.20;;;;;;5028411;28;20029;-64
2023/07/23 02:01:36;;;;;;;4.95;3.40;;;16.50;73.90;;;;;;5047930;28;20440;-64
2023/07/23 02:04:02;;;;;;;5.18;4.03;;;16.50;73.80;;;;;;5027849;28;20069;-63
2023/07/23 02:06:28;;;;;;;4.63;4.00;;;16.50;73.60;;;;;;5042549;28;20128;-64
2023/07/23 02:08:53;;;;;;;5.57;3.88;;;16.50;73.90;;;;;;5027710;28;20458;-64
2023/07/23 02:11:19;;;;;;;4.57;3.75;;;16.50;74.30;;;;;;5048058;28;20078;-63
2023/07/23 02:13:44;;;;;;;4.47;3.53;;;16.50;74.50;;;;;;5027539;28;20025;-65
2023/07/23 02:16:19;;;;;;;4.63;3.58;;;16.50;75.20;;;;;;5048261;28;20400;-58
2023/07/23 02:18:45;;;;;;;4.37;3.90;;;16.50;75.60;;;;;;5025679;28;20397;-58
2023/07/23 02:21:10;;;;;;;4.60;3.80;;;16.50;76.40;;;;;;5048054;28;20044;-58
2023/07/23 02:23:36;;;;;;;5.63;3.50;;;16.50;77.20;;;;;;5027085;28;20034;-57
2023/07/23 02:26:01;;;;;;;4.63;4.10;;;16.50;77.50;;;;;;5047944;28;20033;-56
2023/07/23 02:28:27;;;;;;;4.90;4.00;;;16.50;77.80;;;;;;5027488;28;20152;-57
2023/07/23 02:30:59;;;;;;;4.75;3.90;;;16.40;78.50;;;;;;5047532;28;20048;-54
2023/07/23 02:33:26;;;;;;;4.22;3.45;;;16.40;79.80;;;;;;5027186;28;20104;-59
2023/07/23 02:35:51;;;;;;;5.50;4.38;;;16.40;80.50;;;;;;5047931;28;20583;-56
2023/07/23 02:38:17;;;;;;;5.30;4.13;;;16.40;82.40;;;;;;5027017;28;20036;-58
2023/07/23 02:40:43;;;;;;;7.40;4.25;;;16.30;82.90;;;;;;5047788;28;20032;-59
2023/07/23 02:43:12;;;;;;;4.78;3.53;;;16.30;83.30;;;;;;5027154;28;20040;-57
2023/07/23 02:45:40;;;;;;;5.78;4.57;;;16.30;84.90;;;;;;5048096;28;20025;-59
2023/07/23 02:48:07;;;;;;;5.57;4.03;;;16.30;86.20;;;;;;5027245;28;20041;-57
2023/07/23 02:50:33;;;;;;;4.13;3.72;;;16.20;87.00;;;;;;5047651;28;20123;-57
2023/07/23 02:52:58;;;;;;;5.50;4.18;;;16.10;87.10;;;;;;5036874;28;20092;-57
2023/07/23 02:55:25;;;;;;;6.40;3.92;;;16.20;88.00;;;;;;5028841;28;20053;-59
2023/07/23 02:57:51;;;;;;;4.85;4.00;;;16.10;87.80;;;;;;5044453;28;20029;-56
2023/07/23 03:00:20;;;;;;;6.38;4.72;;;16.10;87.80;;;;;;5028682;28;20036;-57
2023/07/23 03:02:49;;;;;;;5.18;4.15;;;16.10;88.30;;;;;;5046139;28;20025;-59
2023/07/23 03:05:15;;;;;;;5.40;4.22;;;16.00;89.60;;;;;;5029375;28;20584;-57
2023/07/23 03:07:40;;;;;;;6.32;4.43;;;16.00;89.70;;;;;;5046207;28;20033;-57
2023/07/23 03:10:06;;;;;;;3.83;3.45;;;15.90;90.30;;;;;;5031155;28;20124;-56
2023/07/23 03:12:32;;;;;;;4.63;3.80;;;15.90;91.30;;;;;;5049613;28;20400;-57
2023/07/23 03:14:58;;;;;;;5.53;4.22;;;15.80;91.60;;;;;;5050681;28;20017;-57
2023/07/23 03:17:24;;;;;;;5.30;4.50;;;15.80;93.60;;;;;;5035984;28;20048;-57
2023/07/23 03:19:50;;;;;;;5.38;4.43;;;15.70;94.20;;;;;;5052228;28;20029;-57
2023/07/23 03:22:15;;;;;;;5.32;4.00;;;15.70;94.30;;;;;;5033131;28;20029;-57
2023/07/23 03:24:41;;;;;;;5.72;3.97;;;15.60;94.90;;;;;;5051997;28;20032;-57
2023/07/23 03:27:06;;;;;;;6.65;5.07;;;15.60;95.90;;;;;;5033575;28;20071;-58
2023/07/23 03:29:32;;;;;;;5.88;4.80;;;15.50;99.90;;;;;;5050092;28;20033;-55
2023/07/23 03:31:57;;;;;;;7.57;5.05;;;15.40;99.90;;;;;;5031625;28;20104;-59
2023/07/23 03:34:23;;;;;;;5.57;4.03;;;15.30;99.90;;;;;;5051995;28;20377;-58
2023/07/23 03:36:48;;;;;;;7.40;4.70;;;15.40;99.90;;;;;;5030942;28;20065;-58
2023/07/23 03:39:16;;;;;;;4.72;4.03;;;15.30;99.90;;;;;;5051789;28;20029;-56
2023/07/23 03:41:42;;;;;;;8.43;4.70;;;15.30;99.90;;;;;;5032038;28;20095;-58
2023/07/23 03:44:08;;;;;;;5.45;4.45;;;15.30;99.90;;;;;;5049442;28;20123;-57
2023/07/23 03:46:41;;;;;;;5.05;4.22;;;15.30;99.90;;;;;;5031909;28;20022;-57
2023/07/23 03:49:06;;;;;;;6.40;4.53;;;15.30;99.90;;;;;;5029293;28;20049;-59
2023/07/23 03:51:32;;;;;;;7.00;4.93;;;15.30;99.90;;;;;;5050685;28;20463;-56
2023/07/23 03:53:57;;;;;;;4.90;4.15;;;15.30;99.90;;;;;;5029979;28;20048;-57
2023/07/23 03:56:23;;;;;;;6.20;4.57;;;15.30;99.90;;;;;;5050683;28;20471;-57
2023/07/23 03:58:48;;;;;;;8.40;5.30;;;15.30;99.90;;;;;;5030420;28;20033;-59
2023/07/23 04:01:13;;;;;;;8.13;5.05;;;15.30;99.90;;;;;;5050363;28;20488;-57
2023/07/23 04:03:39;;;;;;;6.25;4.38;;;15.40;99.90;;;;;;5030040;28;20246;-58
2023/07/23 04:06:04;;;;;;;6.05;5.03;;;15.40;99.90;;;;;;5047049;28;20127;-58
2023/07/23 04:08:30;;;;;;;6.38;4.80;;;15.40;99.90;;;;;;5030103;28;20068;-58
2023/07/23 04:10:56;;;;;;;6.80;5.22;;;15.40;99.90;;;;;;5050069;28;20339;-58
2023/07/23 04:13:21;;;;;;;7.57;5.20;;;15.30;99.90;;;;;;5029774;28;20076;-57
2023/07/23 04:15:46;;;;;;;6.78;5.47;;;15.40;99.90;;;;;;5050332;28;20029;-57
2023/07/23 04:18:13;;;;;;;7.78;5.20;;;15.40;99.90;;;;;;5029716;28;20109;-60
2023/07/23 04:20:40;;;;;;;6.00;4.82;;;15.40;99.90;;;;;;5049396;28;20032;-60
2023/07/23 04:23:05;;;;;;;5.85;4.70;;;15.40;99.90;;;;;;5040439;28;20040;-60
2023/07/23 04:25:31;;;;;;;7.28;5.00;;;15.40;99.90;;;;;;5031458;28;20030;-59
2023/07/23 04:27:56;;;;;;;6.50;4.30;;;15.50;99.90;;;;;;5048013;28;20396;-60
2023/07/23 04:30:24;;;;;;;5.93;4.68;;;15.50;99.90;;;;;;5039467;28;20111;-61
2023/07/23 04:32:50;;;;;;;6.43;5.10;;;15.60;99.90;;;;;;5037929;28;20090;-61
2023/07/23 04:35:15;;;;;;;7.53;4.90;;;15.60;99.90;;;;;;5030936;28;20037;-61
2023/07/23 04:37:41;;;;;;;5.00;4.40;;;15.60;99.90;;;;;;5048032;28;20031;-61
2023/07/23 04:40:08;;;;;;;9.35;5.03;;;15.70;99.90;;;;;;5050744;28;20524;-61
2023/07/23 04:42:33;;;;;;;5.93;4.68;;;15.80;99.90;;;;;;5035556;28;20060;-60
2023/07/23 04:44:59;;;;;;;8.32;5.57;;;15.80;99.90;;;;;;5050481;28;20013;-60
2023/07/23 04:47:24;;;;;;;6.63;4.90;;;15.90;99.90;;;;;;5034635;28;20025;-60
2023/07/23 04:49:50;;;;;;;7.57;5.07;;;15.90;99.90;;;;;;5050360;28;20078;-60
2023/07/23 04:52:15;;;;;;;6.68;5.40;;;15.90;99.90;;;;;;5033005;28;20397;-60
2023/07/23 04:54:41;;;;;;;9.50;4.50;;;15.90;99.90;;;;;;5050414;28;20123;-60
2023/07/23 04:57:06;;;;;;;5.47;4.45;;;15.90;99.90;;;;;;5031871;28;20538;-60
2023/07/23 04:59:32;;;;;;;5.50;4.78;;;16.00;99.90;;;;;;5050435;28;20029;-60
2023/07/23 05:01:57;;;;;;;6.32;4.85;;;16.00;99.90;;;;;;5030344;28;20029;-60
2023/07/23 05:04:23;;;;;;;9.40;5.30;;;16.10;99.90;;;;;;5049638;28;20095;-59
2023/07/23 05:06:49;;;;;;;9.27;4.95;;;16.10;99.90;;;;;;5022820;28;20017;-60
2023/07/23 05:09:14;;;;;;;5.95;4.85;;;16.10;99.90;;;;;;5049861;28;20649;-61
2023/07/23 05:11:40;;;;;;;6.50;5.40;;;16.10;99.90;;;;;;5030557;28;20079;-60
2023/07/23 05:14:05;;;;;;;8.02;4.80;;;16.20;99.90;;;;;;5028283;28;20537;-60
2023/07/23 05:16:31;;;;;;;5.53;4.55;;;16.20;99.90;;;;;;5049098;28;20104;-60
2023/07/23 05:18:56;;;;;;;5.65;4.90;;;16.30;99.90;;;;;;5028375;28;20034;-60
2023/07/23 05:21:22;;;;;;;7.93;5.50;;;16.40;99.90;;;;;;5049245;28;20133;-60
2023/07/23 05:23:47;;;;;;;6.88;4.60;;;16.50;99.80;;;;;;5027163;28;20118;-61
2023/07/23 05:26:13;;;;;;;6.97;5.13;;;16.50;99.30;;;;;;5048961;28;20439;-61
2023/07/23 05:28:38;;;;;;;8.05;5.00;;;16.60;99.00;;;;;;5028318;28;20044;-61
2023/07/23 05:31:04;;;;;;;5.22;4.35;;;16.70;98.60;;;;;;5048940;28;20280;-61
2023/07/23 05:33:30;;;;;;;5.65;4.50;;;16.80;98.50;;;;;;5028562;28;20072;-60
2023/07/23 05:35:55;;;;;;;5.43;4.35;;;16.90;98.20;;;;;;5048702;28;20389;-61
2023/07/23 05:38:21;;;;;;;6.82;4.82;;;17.00;97.80;;;;;;5028330;28;20044;-61
2023/07/23 05:40:57;;;;;;;6.43;4.88;;;17.10;97.60;;;;;;5048728;28;20059;-61
2023/07/23 05:43:23;;;;;;;;;;;17.20;97.20;;;;;;5028502;28;20033;-61
2023/07/23 05:45:48;;;;;;;6.63;4.40;;;17.30;97.90;;;;;;5048685;28;19963;-61
2023/07/23 05:48:14;;;;;;;4.60;4.07;;;17.40;96.90;;;;;;5027946;28;20026;-61
2023/07/23 05:50:39;;;;;;;8.02;4.47;;;17.50;96.90;;;;;;5048420;28;20029;-61
2023/07/23 05:53:05;;;;;;;5.60;5.00;;;17.60;96.80;;;;;;5028136;28;20421;-61
2023/07/23 05:55:30;;;;;;;5.78;4.75;;;17.80;96.30;;;;;;5048478;28;20636;-61
2023/07/23 05:57:56;;;;;;;5.93;5.03;;;18.00;95.70;;;;;;5037364;28;20021;-61
2023/07/23 06:00:21;;;;;;;11.52;5.35;;;18.00;95.40;;;;;;5029752;28;20037;-61
2023/07/23 06:02:47;;;;;;;5.95;4.80;;;18.20;94.90;;;;;;5046468;28;20033;-60
2023/07/23 06:05:12;;;;;;;9.50;5.45;;;18.30;94.50;;;;;;5030592;28;20551;-60
2023/07/23 06:07:38;;;;;;;5.93;4.82;;;18.40;93.80;;;;;;5040005;28;20022;-60
2023/07/23 06:10:04;;;;;;;6.00;4.60;;;18.60;93.40;;;;;;5028215;28;20493;-60
2023/07/23 06:12:29;;;;;;;5.80;5.07;;;18.80;93.00;;;;;;5040559;28;20029;-60
2023/07/23 06:14:55;;;;;;;5.18;4.50;;;19.00;91.90;;;;;;5029222;28;20029;-63
2023/07/23 06:17:20;;;;;;;5.97;4.80;;;19.10;91.30;;;;;;5041660;28;20105;-61
2023/07/23 06:19:47;;;;;;;5.47;4.80;;;19.20;91.10;;;;;;5029388;28;20033;-62
2023/07/23 06:22:12;;;;;;;7.10;5.32;;;19.40;91.00;;;;;;5042816;28;20025;-63
2023/07/23 06:24:38;;;;;;;6.00;4.90;;;19.50;90.10;;;;;;5029172;28;20048;-63
2023/07/23 06:27:04;;;;;;;6.18;4.47;;;19.70;89.70;;;;;;5043843;28;20068;-63
2023/07/23 06:29:29;;;;;;;5.63;5.00;;;20.00;88.60;;;;;;5030179;28;20087;-62
2023/07/23 06:31:56;;;;;;;5.72;5.13;;;20.70;85.70;;;;;;5045549;28;20493;-62
2023/07/23 06:34:21;;;;;;;6.30;4.63;;;21.70;81.30;;;;;;5028996;28;20022;-62
2023/07/23 06:36:47;;;;;;;7.25;4.75;;;22.30;77.30;;;;;;5045962;28;20076;-62
2023/07/23 06:39:13;;;;;;;5.03;4.32;;;22.70;75.90;;;;;;5029075;28;20108;-63
2023/07/23 06:41:40;;;;;;;4.15;3.72;;;24.20;72.10;;;;;;5048089;28;20037;-63
2023/07/23 06:44:05;;;;;;;5.07;4.05;;;26.30;66.00;;;;;;5025617;28;20072;-62
2023/07/23 06:46:31;;;;;;;4.45;4.00;;;27.70;61.10;;;;;;5048005;28;20527;-63
2023/07/23 06:48:56;;;;;;;6.10;3.85;;;28.80;55.60;;;;;;5027416;28;20087;-63
2023/07/23 06:51:22;;;;;;;4.47;3.80;;;29.20;53.20;;;;;;5048058;28;20143;-62
2023/07/23 06:53:48;;;;;;;4.88;3.80;;;29.30;49.80;;;;;;5027583;28;20056;-63
2023/07/23 06:56:14;;;;;;;4.55;4.07;;;29.60;48.40;;;;;;5047846;28;20489;-62
2023/07/23 06:58:39;;;;;;;4.25;3.65;;;29.90;44.90;;;;;;5027431;28;20038;-62
2023/07/23 07:01:07;;;;;;;5.20;3.78;;;29.40;43.00;;;;;;5048152;28;20107;-63
2023/07/23 07:03:32;;;;;;;4.93;4.00;;;29.00;42.70;;;;;;5026852;28;20057;-62
2023/07/23 07:05:59;;;;;;;3.65;3.15;;;28.60;42.30;;;;;;5038580;28;20060;-63
2023/07/23 07:08:26;;;;;;;5.93;3.90;;;28.40;41.70;;;;;;5027270;28;20045;-62
2023/07/23 07:10:58;;;;;;;4.00;3.60;;;28.40;40.40;;;;;;5048140;28;20112;-62
2023/07/23 07:13:23;;;;;;;3.78;3.25;;;28.40;38.30;;;;;;5020613;28;20489;-61
2023/07/23 07:15:49;;;;;;;5.22;3.95;;;28.30;38.90;;;;;;5046442;28;20140;-62
2023/07/23 07:18:14;;;;;;;3.50;3.20;;;28.10;37.70;;;;;;5027156;28;20025;-63
2023/07/23 07:20:40;;;;;;;5.53;3.50;;;28.10;37.30;;;;;;5047892;28;20036;-63
2023/07/23 07:23:05;;;;;;;4.18;3.28;;;28.70;35.30;;;;;;5027328;28;20033;-63
2023/07/23 07:25:31;;;;;;;3.53;3.22;;;29.50;31.10;;;;;;5047721;28;20110;-62
2023/07/23 07:27:56;;;;;;;3.40;3.05;;;30.30;32.10;;;;;;5027064;28;20026;-63
2023/07/23 07:30:22;;;;;;;3.55;3.10;;;30.90;30.90;;;;;;5039132;28;20034;-61
2023/07/23 07:32:47;;;;;;;3.90;3.35;;;31.10;29.10;;;;;;5037103;28;20113;-62
2023/07/23 07:35:13;;;;;;;6.32;3.38;;;31.30;28.30;;;;;;5047484;28;20037;-62
2023/07/23 07:37:38;;;;;;;3.25;2.95;;;31.50;27.50;;;;;;5026968;28;20316;-63
2023/07/23 07:40:04;;;;;;;4.90;3.70;;;31.20;26.60;;;;;;5028463;28;20454;-63
2023/07/23 07:42:30;;;;;;;3.75;3.33;;;30.80;25.60;;;;;;5038103;28;20053;-62
2023/07/23 07:44:55;;;;;;;6.78;3.08;;;31.10;25.30;;;;;;5028221;28;20053;-62
2023/07/23 07:47:21;;;;;;;3.08;2.75;;;31.20;24.60;;;;;;5040473;28;20045;-62
2023/07/23 07:49:50;;;;;;;3.85;3.10;;;31.30;24.40;;;;;;5028431;28;20105;-62
2023/07/23 07:52:15;;;;;;;3.58;3.28;;;31.70;23.30;;;;;;5041562;28;20029;-63
2023/07/23 07:54:40;;;;;;;3.55;3.25;;;32.20;22.50;;;;;;5028335;28;20100;-63
2023/07/23 07:57:06;;;;;;;5.88;3.30;;;32.10;20.00;;;;;;5044845;28;20478;-62
2023/07/23 07:59:32;;;;;;;3.60;3.05;;;31.70;21.40;;;;;;5031988;28;20025;-62
2023/07/23 08:01:58;;;;;;;5.18;3.20;;;31.20;20.90;;;;;;5047128;28;20434;-62
2023/07/23 08:04:23;;;;;;;5.30;3.47;;;30.80;20.90;;;;;;5031631;28;20026;-61
2023/07/23 08:06:50;;;;;;;4.20;3.80;;;30.50;20.00;;;;;;5042609;28;20683;-62
2023/07/23 08:09:20;;;;;;;4.93;3.72;;;30.00;19.40;;;;;;5031571;28;20110;-63
2023/07/23 08:11:47;;;;;;;5.93;3.20;;;29.60;19.90;;;;;;5049481;28;20392;-60
2023/07/23 08:14:18;;;;;;;4.20;3.65;;;29.30;20.10;;;;;;5031644;28;20746;-63
2023/07/23 08:16:44;;;;;;;4.53;3.17;;;29.00;20.20;;;;;;5051099;28;20063;-62
2023/07/23 08:19:10;;;;;;;3.88;3.33;;;28.90;20.30;;;;;;5029699;28;20465;-61
2023/07/23 08:21:36;;;;;;;4.25;3.60;;;28.80;20.50;;;;;;5050365;28;20067;-61
2023/07/23 08:24:02;;;;;;;4.78;3.28;;;28.70;20.60;;;;;;5029957;28;20505;-60
2023/07/23 08:26:29;;;;;;;4.88;3.25;;;28.50;20.50;;;;;;5050567;28;20029;-60
2023/07/23 08:28:59;;;;;;;4.50;3.30;;;28.40;20.90;;;;;;5029556;28;20037;-60
2023/07/23 08:31:25;;;;;;;4.85;3.22;;;28.00;19.40;;;;;;5050880;28;20036;-59
2023/07/23 08:33:52;;;;;;;5.07;3.10;;;27.40;20.50;;;;;;5029904;28;20056;-60
2023/07/23 08:36:18;;;;;;;3.28;2.92;;;27.20;21.40;;;;;;5050293;28;20041;-60
2023/07/23 08:38:43;;;;;;;4.53;3.65;;;27.00;21.50;;;;;;5028766;28;20026;-62
2023/07/23 08:41:22;;;;;;;4.88;3.55;;;26.70;21.50;;;;;;5050364;28;20032;-62
2023/07/23 08:44:10;;;;;;;3.38;2.80;;;26.50;21.80;;;;;;5026245;28;20051;-62
2023/07/23 08:46:45;;;;;;;3.97;3.60;;;26.30;22.30;;;;;;5010920;28;20032;-61
2023/07/23 08:49:11;;;;;;;6.28;4.03;;;26.10;23.10;;;;;;5011326;28;20113;-62
2023/07/23 08:51:39;;;;;;;4.22;3.47;;;25.80;23.00;;;;;;5049379;28;20112;-62
2023/07/23 08:54:06;;;;;;;4.60;3.88;;;25.50;23.20;;;;;;5029147;28;20033;-62
2023/07/23 08:56:33;;;;;;;4.75;3.60;;;25.40;23.60;;;;;;5050066;28;20266;-61
2023/07/23 08:59:01;;;;;;;4.40;3.67;;;25.40;23.90;;;;;;5029068;28;20033;-62
2023/07/23 09:01:31;;;;;;;3.53;3.05;;;25.30;24.00;;;;;;5050187;28;20040;-61
2023/07/23 09:03:56;;;;;;;3.85;3.40;;;25.30;23.80;;;;;;5028404;28;20037;-62
2023/07/23 09:06:22;;;;;;;3.67;3.38;;;25.30;23.80;;;;;;5042419;28;20043;-62
2023/07/23 09:08:49;;;;;;;4.53;3.63;;;25.40;23.90;;;;;;5028915;28;20511;-60
2023/07/23 09:11:15;;;;;;;7.05;4.05;;;25.50;24.10;;;;;;5049700;28;20028;-61
2023/07/23 09:13:40;;;;;;;6.18;3.83;;;25.30;24.10;;;;;;5029064;28;20025;-59
2023/07/23 09:16:06;;;;;;;3.80;3.38;;;25.20;24.40;;;;;;5049632;28;20659;-60
2023/07/23 09:18:39;;;;;;;5.20;3.38;;;25.30;24.40;;;;;;5029172;28;20037;-59
2023/07/23 09:21:06;;;;;;;4.05;3.10;;;25.30;24.30;;;;;;5010632;28;20050;-62
2023/07/23 09:23:32;;;;;;;3.63;3.10;;;25.20;24.50;;;;;;5032691;28;20741;-62
2023/07/23 09:25:59;;;;;;;4.57;3.65;;;25.10;24.20;;;;;;5049304;28;20062;-62
2023/07/23 09:28:25;;;;;;;4.68;3.70;;;25.00;24.20;;;;;;5028830;28;20105;-61
2023/07/23 09:30:55;;;;;;;5.05;3.10;;;24.90;24.30;;;;;;5049233;28;20049;-62
2023/07/23 09:33:21;;;;;;;4.10;3.22;;;25.00;24.40;;;;;;5028421;28;20029;-62
2023/07/23 09:35:47;;;;;;;3.42;2.92;;;25.30;24.50;;;;;;5049411;28;20021;-62
2023/07/23 09:38:15;;;;;;;5.05;3.08;;;25.60;24.20;;;;;;5028810;28;20401;-61
2023/07/23 09:40:41;;;;;;;5.72;3.35;;;25.80;23.90;;;;;;5048174;28;20032;-61
2023/07/23 09:43:07;;;;;;;3.45;3.10;;;26.00;23.70;;;;;;5028540;28;20033;-62
2023/07/23 09:45:38;;;;;;;4.57;3.35;;;26.10;23.30;;;;;;5049080;28;20473;-61
2023/07/23 09:48:05;;;;;;;3.92;3.15;;;26.20;23.20;;;;;;5028060;28;20045;-62
2023/07/23 09:50:30;;;;;;;3.55;3.22;;;26.40;23.10;;;;;;5048883;28;20079;-61
2023/07/23 09:52:56;;;;;;;4.30;3.58;;;26.70;23.10;;;;;;5027992;28;20029;-62
2023/07/23 09:55:22;;;;;;;4.13;3.55;;;26.70;22.60;;;;;;5048786;28;20028;-61
2023/07/23 09:57:50;;;;;;;4.18;3.20;;;26.80;21.90;;;;;;5036556;28;20087;-62
2023/07/23 10:00:16;;;;;;;3.10;2.80;;;27.00;22.50;;;;;;5029485;28;20041;-62
2023/07/23 10:02:43;;;;;;;7.50;3.50;;;27.20;22.30;;;;;;5038886;28;20087;-62
2023/07/23 10:05:12;;;;;;;4.72;3.35;;;27.50;22.10;;;;;;5038471;28;20025;-62
2023/07/23 10:07:39;;;;;;;5.35;3.90;;;27.70;21.70;;;;;;5027554;28;20435;-62
2023/07/23 10:10:05;;;;;;;4.53;3.55;;;27.60;20.30;;;;;;5028092;28;20485;-63
2023/07/23 10:12:31;;;;;;;4.50;3.72;;;27.80;21.80;;;;;;5046673;28;20036;-62
2023/07/23 10:14:57;;;;;;;5.07;3.70;;;28.00;21.10;;;;;;5049254;28;20033;-62
2023/07/23 10:17:24;;;;;;;4.55;3.22;;;28.10;20.20;;;;;;5026586;28;20500;-62
2023/07/23 10:19:51;;;;;;;4.75;3.90;;;28.20;20.60;;;;;;5028542;28;20029;-62
2023/07/23 10:22:17;;;;;;;5.13;3.90;;;28.30;20.60;;;;;;5042094;28;20025;-73
2023/07/23 10:24:43;;;;;;;5.60;3.28;;;28.30;19.50;;;;;;5029229;28;20136;-51
2023/07/23 10:27:14;;;;;;;4.95;3.85;;;28.10;19.50;;;;;;5043294;28;20630;-54
2023/07/23 10:29:41;;;;;;;4.50;3.90;;;28.00;17.90;;;;;;5031328;28;20025;-55
2023/07/23 10:32:23;;;;;;;6.20;3.88;;;27.70;18.50;;;;;;5044270;28;20587;-53
2023/07/23 10:34:49;;;;;;;4.60;3.10;;;27.50;19.10;;;;;;5029097;28;20045;-52
2023/07/23 10:37:18;;;;;;;4.65;3.88;;;27.70;19.30;;;;;;5042117;28;20187;-53
2023/07/23 10:39:46;;;;;;;4.68;3.80;;;27.70;19.30;;;;;;5027559;28;20030;-53
2023/07/23 10:42:31;;;;;;;5.78;3.70;;;27.80;18.80;;;;;;5042694;28;20039;-53
2023/07/23 10:45:25;;;;;;;4.85;3.65;;;27.80;19.10;;;;;;5028766;28;20033;-52
2023/07/23 10:47:53;;;;;;;6.40;3.97;;;28.00;19.60;;;;;;5016177;28;20022;-53
2023/07/23 10:50:20;;;;;;;4.50;4.00;;;28.00;19.10;;;;;;5048315;28;20040;-52
2023/07/23 10:52:48;;;;;;;4.78;3.92;;;28.00;18.40;;;;;;5027210;28;20079;-54
2023/07/23 10:55:40;;;;;;;4.18;3.65;;;28.10;17.90;;;;;;5048175;28;20032;-54
2023/07/23 10:58:14;;;;;;;6.50;4.00;;;28.10;17.90;;;;;;5018275;28;20072;-55
2023/07/23 11:00:47;;;;;;;6.57;3.55;;;28.00;17.00;;;;;;5048132;28;20032;-53
2023/07/23 11:03:16;;;;;;;5.20;4.10;;;28.00;17.40;;;;;;5027066;28;20034;-54
2023/07/23 11:05:42;;;;;;;4.88;4.03;;;28.10;18.00;;;;;;5030118;28;20033;-57
2023/07/23 11:08:19;;;;;;;4.57;3.30;;;28.10;18.10;;;;;;5035014;28;20104;-51
2023/07/23 11:10:56;;;;;;;5.63;3.92;;;27.90;17.60;;;;;;5009049;28;20022;-56
2023/07/23 11:13:23;;;;;;;4.95;3.90;;;28.00;18.10;;;;;;5020227;28;20042;-57
2023/07/23 11:15:49;;;;;;;4.90;3.90;;;27.90;18.00;;;;;;5048143;28;20125;-55
2023/07/23 11:18:15;;;;;;;4.93;3.80;;;27.80;18.30;;;;;;5027037;28;20125;-54
2023/07/23 11:20:46;;;;;;;5.15;4.22;;;27.70;18.40;;;;;;5047676;28;20442;-54
2023/07/23 11:23:12;;;;;;;5.75;4.00;;;27.60;18.50;;;;;;5027230;28;20076;-52
2023/07/23 11:25:39;;;;;;;4.88;3.63;;;27.60;18.50;;;;;;5047717;28;20032;-56
2023/07/23 11:28:05;;;;;;;4.88;3.90;;;27.40;18.20;;;;;;5026934;28;20041;-55
2023/07/23 11:30:31;;;;;;;4.20;3.80;;;27.30;18.50;;;;;;5041196;28;20068;-55
2023/07/23 11:33:01;;;;;;;4.55;3.70;;;27.30;18.90;;;;;;5030133;28;20604;-54
2023/07/23 11:35:27;;;;;;;7.45;3.80;;;27.50;19.40;;;;;;5051993;28;20087;-55
2023/07/23 11:37:53;;;;;;;5.28;3.72;;;27.60;19.10;;;;;;5030544;28;20029;-55
2023/07/23 11:40:23;;;;;;;5.38;4.43;;;27.60;18.70;;;;;;5051220;28;20413;-55
2023/07/23 11:42:51;;;;;;;3.72;3.33;;;27.60;18.80;;;;;;5039061;28;20500;-53
2023/07/23 11:45:16;;;;;;;4.18;3.50;;;27.70;18.80;;;;;;5032123;28;20044;-55
2023/07/23 11:47:52;;;;;;;5.30;3.78;;;27.90;19.20;;;;;;5041553;28;20052;-55
2023/07/23 11:50:19;;;;;;;6.00;4.00;;;27.90;19.30;;;;;;5051635;28;20037;-54
2023/07/23 11:52:47;;;;;;;4.07;3.47;;;28.00;19.10;;;;;;5030427;28;20363;-52
2023/07/23 11:55:28;;;;;;;4.15;3.70;;;28.10;19.00;;;;;;5051298;28;20083;-54
2023/07/23 11:57:55;;;;;;;4.05;3.42;;;28.30;18.80;;;;;;5030444;28;20029;-57
2023/07/23 12:00:33;;;;;;;5.78;3.60;;;28.40;18.70;;;;;;5051288;28;20028;-55
2023/07/23 12:02:59;;;;;;;4.20;3.80;;;28.30;18.90;;;;;;5019856;28;20032;-53
2023/07/23 12:05:24;;;;;;;5.75;3.65;;;28.30;18.60;;;;;;5035351;28;20033;-55
2023/07/23 12:07:53;;;;;;;4.80;3.92;;;28.30;18.70;;;;;;5040172;28;20496;-55
2023/07/23 12:10:19;;;;;;;4.05;3.13;;;28.30;18.70;;;;;;5050951;28;20028;-55
2023/07/23 12:12:48;;;;;;;3.38;3.08;;;28.30;18.90;;;;;;5030203;28;20017;-53
2023/07/23 12:15:15;;;;;;;10.20;3.72;;;28.40;19.00;;;;;;5050690;28;20055;-54
2023/07/23 12:17:41;;;;;;;4.57;3.42;;;28.40;18.50;;;;;;5029882;28;20041;-55
2023/07/23 12:20:09;;;;;;;6.13;3.40;;;28.40;18.60;;;;;;5050676;28;20032;-52
2023/07/23 12:22:54;;;;;;;4.15;3.22;;;28.60;18.90;;;;;;5029410;28;20037;-52
2023/07/23 12:25:20;;;;;;;4.80;3.08;;;28.70;19.30;;;;;;5031483;28;20413;-54
2023/07/23 12:27:46;;;;;;;6.13;3.40;;;28.80;18.70;;;;;;5040263;28;20033;-53
2023/07/23 12:30:12;;;;;;;3.70;3.25;;;28.80;18.20;;;;;;5045207;28;20041;-52
2023/07/23 12:32:38;;;;;;;4.35;3.70;;;28.90;18.50;;;;;;5029222;28;20034;-55
2023/07/23 12:35:04;;;;;;;4.85;3.22;;;28.90;18.40;;;;;;5031262;28;20091;-55
2023/07/23 12:37:31;;;;;;;3.67;3.38;;;28.90;18.10;;;;;;5042461;28;20025;-54
2023/07/23 12:39:57;;;;;;;6.28;3.70;;;28.90;18.20;;;;;;5031003;28;20017;-50
2023/07/23 12:42:23;;;;;;;3.60;3.30;;;28.80;18.00;;;;;;5042490;28;20037;-53
2023/07/23 12:44:48;;;;;;;3.97;3.58;;;28.70;18.20;;;;;;5031094;28;20030;-55
2023/07/23 12:47:14;;;;;;;5.43;3.55;;;28.60;17.90;;;;;;5044039;28;20046;-52